Time;durP1;ratioP1;P1;durP2;ratioP2;P2;SDS_P1;SDS_P2;PMS_P1;PMS_P2;Temp;Humidity;BMP_temperature;BMP_pressure;BME280_temperature;BME280_humidity;BME280_pressure;Samples;Min_cycle;Max_cycle;Signal;HPM_P1;HPM_P2
2023/10/20 00:01:01;;;;;;;;;;;;;;;;;;5052887;28;1897;-70
2023/10/20 00:03:27;;;;;;;;;;;;;;;;;;5055129;28;1360;-70
2023/10/20 00:05:53;;;;;;;;;;;;;;;;;;5069947;28;1214;-70
2023/10/20 00:08:18;;;;;;;;;;;;;;;;;;5054048;28;1020;-70
2023/10/20 00:10:44;;;;;;;;;;;;;;;;;;5052609;28;1015;-70
2023/10/20 00:13:09;;;;;;;;;;;;;;;;;;5051864;28;1377;-70
2023/10/20 00:15:34;;;;;;;;;;;;;;;;;;5052182;28;974;-70
2023/10/20 00:18:01;;;;;;;;;;;;;;;;;;5054240;28;940;-70
2023/10/20 00:20:26;;;;;;;;;;;;;;;;;;5053108;28;1890;-71
2023/10/20 00:22:51;;;;;;;;;;;;;;;;;;5051985;28;1314;-70
2023/10/20 00:25:17;;;;;;;;;;;;;;;;;;5051871;28;904;-70
2023/10/20 00:27:42;;;;;;;;;;;;;;;;;;5053731;28;853;-71
2023/10/20 00:30:09;;;;;;;;;;;;;;;;;;5051845;28;1422;-71
2023/10/20 00:32:34;;;;;;;;;;;;;;;;;;5053716;28;899;-70
2023/10/20 00:35:05;;;;;;;;;;;;;;;;;;5051809;28;1224;-71
2023/10/20 00:37:31;;;;;;;;;;;;;;;;;;5035908;28;1408;-70
2023/10/20 00:39:56;;;;;;;;;;;;;;;;;;5054028;28;1961;-70
2023/10/20 00:42:22;;;;;;;;;;;;;;;;;;5053895;28;917;-70
2023/10/20 00:44:47;;;;;;;;;;;;;;;;;;5052051;28;1184;-71
2023/10/20 00:47:12;;;;;;;;;;;;;;;;;;5053496;28;912;-70
2023/10/20 00:49:38;;;;;;;;;;;;;;;;;;5036225;28;1340;-71
2023/10/20 00:52:06;;;;;;;;;;;;;;;;;;5054015;28;940;-70
2023/10/20 00:54:32;;;;;;;;;;;;;;;;;;5053955;28;919;-69
2023/10/20 00:56:57;;;;;;;;;;;;;;;;;;5052059;28;857;-69
2023/10/20 00:59:23;;;;;;;;;;;;;;;;;;5052725;28;844;-69
2023/10/20 01:01:48;;;;;;;;;;;;;;;;;;5052397;28;1955;-70
2023/10/20 01:04:13;;;;;;;;;;;;;;;;;;5052416;28;998;-69
2023/10/20 01:06:39;;;;;;;;;;;;;;;;;;5051192;28;1353;-69
2023/10/20 01:09:04;;;;;;;;;;;;;;;;;;5051146;28;1235;-70
2023/10/20 01:11:29;;;;;;;;;;;;;;;;;;5034650;28;1514;-69
2023/10/20 01:13:56;;;;;;;;;;;;;;;;;;5052703;28;844;-70
2023/10/20 01:16:21;;;;;;;;;;;;;;;;;;5051332;28;897;-70
2023/10/20 01:18:46;;;;;;;;;;;;;;;;;;5053019;28;975;-70
2023/10/20 01:21:12;;;;;;;;;;;;;;;;;;5050401;28;2335;-70
2023/10/20 01:23:37;;;;;;;;;;;;;;;;;;5052488;28;900;-70
2023/10/20 01:26:03;;;;;;;;;;;;;;;;;;5050893;28;1352;-70
2023/10/20 01:28:28;;;;;;;;;;;;;;;;;;5050736;28;1038;-70
2023/10/20 01:30:56;;;;;;;;;;;;;;;;;;5052563;28;931;-70
2023/10/20 01:33:21;;;;;;;;;;;;;;;;;;5052494;28;920;-70
2023/10/20 01:35:46;;;;;;;;;;;;;;;;;;5052980;28;825;-70
2023/10/20 01:38:12;;;;;;;;;;;;;;;;;;5051212;28;1243;-70
2023/10/20 01:40:37;;;;;;;;;;;;;;;;;;5052935;28;1889;-70
2023/10/20 01:43:02;;;;;;;;;;;;;;;;;;5052838;28;889;-70
2023/10/20 01:45:28;;;;;;;;;;;;;;;;;;5051906;28;1012;-70
2023/10/20 01:47:54;;;;;;;;;;;;;;;;;;5051211;28;825;-71
2023/10/20 01:50:20;;;;;;;;;;;;;;;;;;5051623;28;869;-70
2023/10/20 01:52:46;;;;;;;;;;;;;;;;;;5034027;28;1461;-70
2023/10/20 01:55:11;;;;;;;;;;;;;;;;;;5051042;28;872;-71
2023/10/20 01:57:36;;;;;;;;;;;;;;;;;;5051609;28;1024;-70
2023/10/20 02:00:03;;;;;;;;;;;;;;;;;;5050657;28;1908;-71
2023/10/20 02:02:28;;;;;;;;;;;;;;;;;;5051209;28;1082;-71
2023/10/20 02:04:54;;;;;;;;;;;;;;;;;;5034175;28;1447;-70
2023/10/20 02:07:19;;;;;;;;;;;;;;;;;;5051076;28;946;-71
2023/10/20 02:09:45;;;;;;;;;;;;;;;;;;5051198;28;844;-70
2023/10/20 02:12:10;;;;;;;;;;;;;;;;;;5051861;28;924;-71
2023/10/20 02:14:36;;;;;;;;;;;;;;;;;;5050658;28;1421;-71
2023/10/20 02:17:01;;;;;;;;;;;;;;;;;;5054478;28;1274;-71
2023/10/20 02:19:26;;;;;;;;;;;;;;;;;;5069929;28;1364;-71
2023/10/20 02:21:52;;;;;;;;;;;;;;;;;;5070449;28;2051;-70
2023/10/20 02:24:17;;;;;;;;;;;;;;;;;;5069905;28;861;-71
2023/10/20 02:26:42;;;;;;;;;;;;;;;;;;5071669;28;839;-71
2023/10/20 02:29:07;;;;;;;;;;;;;;;;;;5071924;28;833;-71
2023/10/20 02:31:33;;;;;;;;;;;;;;;;;;5072483;28;975;-71
2023/10/20 02:33:58;;;;;;;;;;;;;;;;;;5070737;28;1524;-71
2023/10/20 02:36:24;;;;;;;;;;;;;;;;;;5070139;28;1297;-71
2023/10/20 02:38:52;;;;;;;;;;;;;;;;;;5071565;28;955;-71
2023/10/20 02:41:17;;;;;;;;;;;;;;;;;;5069551;28;1967;-71
2023/10/20 02:43:43;;;;;;;;;;;;;;;;;;5070375;28;1335;-71
2023/10/20 02:46:09;;;;;;;;;;;;;;;;;;5069335;28;1319;-71
2023/10/20 02:48:35;;;;;;;;;;;;;;;;;;5053463;28;1235;-71
2023/10/20 02:51:10;;;;;;;;;;;;;;;;;;5070313;28;902;-71
2023/10/20 02:53:37;;;;;;;;;;;;;;;;;;5070132;28;1214;-71
2023/10/20 02:56:08;;;;;;;;;;;;;;;;;;5071308;28;848;-71
2023/10/20 02:58:34;;;;;;;;;;;;;;;;;;5071678;28;959;-71
2023/10/20 03:00:59;;;;;;;;;;;;;;;;;;5070955;28;1898;-70
2023/10/20 03:03:24;;;;;;;;;;;;;;;;;;5070492;28;1211;-71
2023/10/20 03:05:49;;;;;;;;;;;;;;;;;;5071004;28;915;-71
2023/10/20 03:08:14;;;;;;;;;;;;;;;;;;5069550;28;947;-71
2023/10/20 03:10:40;;;;;;;;;;;;;;;;;;5072146;28;951;-71
2023/10/20 03:13:05;;;;;;;;;;;;;;;;;;5071189;28;927;-71
2023/10/20 03:15:31;;;;;;;;;;;;;;;;;;5070455;28;1191;-72
2023/10/20 03:17:56;;;;;;;;;;;;;;;;;;5087421;28;1234;-70
2023/10/20 03:20:28;;;;;;;;;;;;;;;;;;5070596;28;1879;-71
2023/10/20 03:22:53;;;;;;;;;;;;;;;;;;5074882;28;887;-71
2023/10/20 03:25:18;;;;;;;;;;;;;;;;;;5074041;28;844;-71
2023/10/20 03:27:44;;;;;;;;;;;;;;;;;;5074476;28;869;-71
2023/10/20 03:30:09;;;;;;;;;;;;;;;;;;5055806;28;1211;-71
2023/10/20 03:32:35;;;;;;;;;;;;;;;;;;5074705;28;1011;-71
2023/10/20 03:35:00;;;;;;;;;;;;;;;;;;5074320;28;899;-71
2023/10/20 03:37:26;;;;;;;;;;;;;;;;;;5073764;28;908;-70
2023/10/20 03:39:51;;;;;;;;;;;;;;;;;;5056332;28;1382;-70
2023/10/20 03:42:16;;;;;;;;;;;;;;;;;;5073588;28;1952;-70
2023/10/20 03:44:43;;;;;;;;;;;;;;;;;;5073062;28;1054;-70
2023/10/20 03:47:08;;;;;;;;;;;;;;;;;;5074018;28;793;-70
2023/10/20 03:49:35;;;;;;;;;;;;;;;;;;5073269;28;1313;-70
2023/10/20 03:52:00;;;;;;;;;;;;;;;;;;5056618;28;1247;-70
2023/10/20 03:54:26;;;;;;;;;;;;;;;;;;5056284;28;1219;-70
2023/10/20 03:56:51;;;;;;;;;;;;;;;;;;5074032;28;1256;-71
2023/10/20 03:59:16;;;;;;;;;;;;;;;;;;5074102;28;864;-71
2023/10/20 04:01:42;;;;;;;;;;;;;;;;;;5074784;28;1890;-69
2023/10/20 04:04:09;;;;;;;;;;;;;;;;;;5072646;28;1206;-69
2023/10/20 04:06:35;;;;;;;;;;;;;;;;;;5075305;28;1286;-69
2023/10/20 04:09:02;;;;;;;;;;;;;;;;;;5075057;28;825;-69
2023/10/20 04:11:28;;;;;;;;;;;;;;;;;;5073677;28;868;-69
2023/10/20 04:13:54;;;;;;;;;;;;;;;;;;5074442;28;833;-69
2023/10/20 04:16:19;;;;;;;;;;;;;;;;;;5074072;28;909;-69
2023/10/20 04:18:44;;;;;;;;;;;;;;;;;;5073928;28;857;-69
2023/10/20 04:21:13;;;;;;;;;;;;;;;;;;5071698;28;1910;-69
2023/10/20 04:23:38;;;;;;;;;;;;;;;;;;5072586;28;1329;-69
2023/10/20 04:26:04;;;;;;;;;;;;;;;;;;5055610;28;1535;-69
2023/10/20 04:28:37;;;;;;;;;;;;;;;;;;5055060;28;1331;-69
2023/10/20 04:50:17;;;;;;;;;;;;;;;;;;5073126;28;911;-71
2023/10/20 04:57:53;;;;;;;;;;;;;;;;;;5044933;28;1307;-71
2023/10/20 05:08:16;;;;;;;;;;;;;;;;;;5073603;28;884;-71
2023/10/20 05:10:43;;;;;;;;;;;;;;;;;;5072798;28;904;-71
2023/10/20 05:13:08;;;;;;;;;;;;;;;;;;5072824;28;876;-71
2023/10/20 05:15:38;;;;;;;;;;;;;;;;;;5072501;28;817;-71
2023/10/20 05:18:04;;;;;;;;;;;;;;;;;;5072282;28;975;-69
2023/10/20 05:20:29;;;;;;;;;;;;;;;;;;5070503;28;1971;-70
2023/10/20 05:22:56;;;;;;;;;;;;;;;;;;5071432;28;1397;-70
2023/10/20 05:25:21;;;;;;;;;;;;;;;;;;5072075;28;801;-70
2023/10/20 05:27:46;;;;;;;;;;;;;;;;;;5055171;28;1420;-70
2023/10/20 05:30:13;;;;;;;;;;;;;;;;;;5072435;28;793;-70
2023/10/20 05:32:38;;;;;;;;;;;;;;;;;;5055148;28;1235;-70
2023/10/20 05:35:04;;;;;;;;;;;;;;;;;;5072594;28;883;-70
2023/10/20 05:37:32;;;;;;;;;;;;;;;;;;5072059;28;896;-70
2023/10/20 05:39:57;;;;;;;;;;;;;;;;;;5072822;28;876;-70
2023/10/20 05:42:24;;;;;;;;;;;;;;;;;;5071438;28;1961;-70
2023/10/20 05:47:33;;;;;;;;;;;;;;;;;;5072289;28;728;-70
2023/10/20 05:49:59;;;;;;;;;;;;;;;;;;5055106;28;1221;-70
2023/10/20 05:52:24;;;;;;;;;;;;;;;;;;5071065;28;1332;-70
2023/10/20 05:54:50;;;;;;;;;;;;;;;;;;5070969;28;1412;-70
2023/10/20 05:57:15;;;;;;;;;;;;;;;;;;5070194;28;1265;-70
2023/10/20 05:59:41;;;;;;;;;;;;;;;;;;5072388;28;821;-71
2023/10/20 06:02:07;;;;;;;;;;;;;;;;;;5070131;28;1910;-70
2023/10/20 06:04:33;;;;;;;;;;;;;;;;;;5069855;28;1305;-70
2023/10/20 06:06:58;;;;;;;;;;;;;;;;;;5071334;28;1064;-70
2023/10/20 06:09:25;;;;;;;;;;;;;;;;;;5069933;28;856;-71
2023/10/20 06:11:50;;;;;;;;;;;;;;;;;;5070507;28;856;-70
2023/10/20 06:14:16;;;;;;;;;;;;;;;;;;5071501;28;841;-70
2023/10/20 06:16:42;;;;;;;;;;;;;;;;;;5071467;28;971;-70
2023/10/20 06:19:07;;;;;;;;;;;;;;;;;;5071777;28;868;-70
2023/10/20 06:21:32;;;;;;;;;;;;;;;;;;5070924;28;1909;-70
2023/10/20 06:23:57;;;;;;;;;;;;;;;;;;5071685;28;912;-72
2023/10/20 06:26:23;;;;;;;;;;;;;;;;;;5069626;28;829;-70
2023/10/20 06:28:48;;;;;;;;;;;;;;;;;;5071407;28;968;-70
2023/10/20 06:31:58;;;;;;;;;;;;;;;;;;5053059;28;1390;-70
2023/10/20 06:36:38;;;;;;;;;;;;;;;;;;5070987;28;943;-70
2023/10/20 06:39:03;;;;;;;;;;;;;;;;;;5071155;28;849;-70
2023/10/20 06:41:29;;;;;;;;;;;;;;;;;;5071073;28;1963;-71
2023/10/20 06:43:54;;;;;;;;;;;;;;;;;;5071794;28;907;-70
2023/10/20 06:46:21;;;;;;;;;;;;;;;;;;5069794;28;969;-70
2023/10/20 06:48:47;;;;;;;;;;;;;;;;;;5072840;28;840;-70
2023/10/20 06:51:13;;;;;;;;;;;;;;;;;;5070674;28;896;-71
2023/10/20 06:53:38;;;;;;;;;;;;;;;;;;5071065;28;1187;-71
2023/10/20 06:56:05;;;;;;;;;;;;;;;;;;5074180;28;899;-70
2023/10/20 06:58:31;;;;;;;;;;;;;;;;;;5074943;28;951;-70
2023/10/20 07:00:56;;;;;;;;;;;;;;;;;;5074931;28;1973;-70
2023/10/20 07:03:22;;;;;;;;;;;;;;;;;;5074645;28;1256;-70
2023/10/20 07:05:47;;;;;;;;;;;;;;;;;;5074939;28;881;-70
2023/10/20 07:08:13;;;;;;;;;;;;;;;;;;5075163;28;1079;-70
2023/10/20 07:10:38;;;;;;;;;;;;;;;;;;5075244;28;912;-70
2023/10/20 07:13:08;;;;;;;;;;;;;;;;;;5074185;28;622;-70
2023/10/20 07:15:34;;;;;;;;;;;;;;;;;;5074181;28;844;-70
2023/10/20 07:17:59;;;;;;;;;;;;;;;;;;5074689;28;920;-71
2023/10/20 07:20:25;;;;;;;;;;;;;;;;;;5074060;28;1910;-71
2023/10/20 07:22:50;;;;;;;;;;;;;;;;;;5076674;28;927;-70
2023/10/20 07:25:15;;;;;;;;;;;;;;;;;;5075392;28;720;-70
2023/10/20 07:27:40;;;;;;;;;;;;;;;;;;5074718;28;1034;-70
2023/10/20 07:30:06;;;;;;;;;;;;;;;;;;5073599;28;1136;-69
2023/10/20 07:32:31;;;;;;;;;;;;;;;;;;5068636;28;1218;-70
2023/10/20 07:34:57;;;;;;;;;;;;;;;;;;5076035;28;959;-69
2023/10/20 07:37:22;;;;;;;;;;;;;;;;;;5073427;28;1124;-69
2023/10/20 07:39:49;;;;;;;;;;;;;;;;;;5072919;28;1439;-69
2023/10/20 07:42:19;;;;;;;;;;;;;;;;;;5073771;28;1962;-69
2023/10/20 07:44:44;;;;;;;;;;;;;;;;;;5074174;28;1003;-69
2023/10/20 07:47:09;;;;;;;;;;;;;;;;;;5072784;28;1502;-69
2023/10/20 07:49:35;;;;;;;;;;;;;;;;;;5073528;28;900;-69
2023/10/20 07:52:01;;;;;;;;;;;;;;;;;;5072941;28;1246;-69
2023/10/20 07:54:26;;;;;;;;;;;;;;;;;;5071823;28;1183;-68
2023/10/20 07:56:51;;;;;;;;;;;;;;;;;;5072486;28;817;-69
2023/10/20 07:59:18;;;;;;;;;;;;;;;;;;5072296;28;2318;-68
2023/10/20 08:01:43;;;;;;;;;;;;;;;;;;5073774;28;1975;-69
2023/10/20 08:04:08;;;;;;;;;;;;;;;;;;5073989;28;1097;-68
2023/10/20 08:06:34;;;;;;;;;;;;;;;;;;5071906;28;1219;-69
2023/10/20 08:09:00;;;;;;;;;;;;;;;;;;5055365;28;1215;-69
2023/10/20 08:11:25;;;;;;;;;;;;;;;;;;5055943;28;1300;-69
2023/10/20 08:13:50;;;;;;;;;;;;;;;;;;5071987;28;1144;-70
2023/10/20 08:16:16;;;;;;;;;;;;;;;;;;5073294;28;856;-69
2023/10/20 08:18:41;;;;;;;;;;;;;;;;;;5072041;28;1027;-69
2023/10/20 08:21:07;;;;;;;;;;;;;;;;;;5072792;28;1964;-69
2023/10/20 08:23:34;;;;;;;;;;;;;;;;;;5072892;28;1065;-69
2023/10/20 08:25:59;;;;;;;;;;;;;;;;;;5073961;28;931;-70
2023/10/20 08:28:27;;;;;;;;;;;;;;;;;;5072036;28;1241;-69
2023/10/20 08:31:03;;;;;;;;;;;;;;;;;;5072127;28;1061;-69
2023/10/20 08:33:29;;;;;;;;;;;;;;;;;;5071650;28;1367;-69
2023/10/20 08:35:54;;;;;;;;;;;;;;;;;;5073620;28;1112;-70
2023/10/20 08:38:19;;;;;;;;;;;;;;;;;;5073192;28;817;-70
2023/10/20 08:40:45;;;;;;;;;;;;;;;;;;5073542;28;1972;-70
2023/10/20 08:43:10;;;;;;;;;;;;;;;;;;5072636;28;832;-70
2023/10/20 08:45:35;;;;;;;;;;;;;;;;;;5071776;28;1240;-69
2023/10/20 08:48:01;;;;;;;;;;;;;;;;;;5072849;28;861;-70
2023/10/20 08:50:29;;;;;;;;;;;;;;;;;;5074197;28;911;-69
2023/10/20 08:52:56;;;;;;;;;;;;;;;;;;5073591;28;911;-69
2023/10/20 08:55:21;;;;;;;;;;;;;;;;;;5073312;28;1389;-69
2023/10/20 08:57:47;;;;;;;;;;;;;;;;;;5073104;28;1221;-68
2023/10/20 09:00:20;;;;;;;;;;;;;;;;;;5074635;28;2224;-69
2023/10/20 09:02:45;;;;;;;;;;;;;;;;;;5072640;28;1172;-69
2023/10/20 09:05:10;;;;;;;;;;;;;;;;;;5072603;28;1395;-69
2023/10/20 09:07:36;;;;;;;;;;;;;;;;;;5073153;28;1046;-69
2023/10/20 09:10:02;;;;;;;;;;;;;;;;;;5055277;28;1259;-68
2023/10/20 09:12:31;;;;;;;;;;;;;;;;;;5072696;28;797;-69
2023/10/20 09:14:57;;;;;;;;;;;;;;;;;;5071431;28;1269;-69
2023/10/20 09:17:23;;;;;;;;;;;;;;;;;;5070886;28;1223;-69
2023/10/20 09:19:48;;;;;;;;;;;;;;;;;;5072779;28;880;-69
2023/10/20 09:22:14;;;;;;;;;;;;;;;;;;5072232;28;1906;-69
2023/10/20 09:24:40;;;;;;;;;;;;;;;;;;5070486;28;1378;-70
2023/10/20 09:27:07;;;;;;;;;;;;;;;;;;5072693;28;927;-70
2023/10/20 09:29:33;;;;;;;;;;;;;;;;;;5071133;28;919;-70
2023/10/20 09:31:59;;;;;;;;;;;;;;;;;;5068508;28;1296;-70
2023/10/20 09:34:24;;;;;;;;;;;;;;;;;;5071610;28;829;-70
2023/10/20 09:36:52;;;;;;;;;;;;;;;;;;5072011;28;915;-70
2023/10/20 09:39:21;;;;;;;;;;;;;;;;;;5071471;28;1025;-70
2023/10/20 09:41:48;;;;;;;;;;;;;;;;;;5071498;28;1894;-70
2023/10/20 09:44:20;;;;;;;;;;;;;;;;;;5071616;28;885;-70
2023/10/20 09:46:46;;;;;;;;;;;;;;;;;;5071430;28;833;-69
2023/10/20 09:49:14;;;;;;;;;;;;;;;;;;5071323;28;911;-70
2023/10/20 09:51:42;;;;;;;;;;;;;;;;;;5071217;28;828;-69
2023/10/20 09:54:07;;;;;;;;;;;;;;;;;;5070149;28;837;-70
2023/10/20 09:56:32;;;;;;;;;;;;;;;;;;5072098;28;844;-70
2023/10/20 09:59:00;;;;;;;;;;;;;;;;;;5071156;28;1011;-70
2023/10/20 10:01:25;;;;;;;;;;;;;;;;;;5053680;28;1898;-70
2023/10/20 10:04:03;;;;;;;;;;;;;;;;;;5069725;28;1312;-70
2023/10/20 10:06:34;;;;;;;;;;;;;;;;;;5070972;28;927;-70
2023/10/20 10:08:59;;;;;;;;;;;;;;;;;;5070157;28;1290;-69
2023/10/20 10:11:28;;;;;;;;;;;;;;;;;;5071098;28;828;-70
2023/10/20 10:13:54;;;;;;;;;;;;;;;;;;5069845;28;1250;-70
2023/10/20 10:16:20;;;;;;;;;;;;;;;;;;5071284;28;1014;-70
2023/10/20 10:18:46;;;;;;;;;;;;;;;;;;5071304;28;962;-70
2023/10/20 10:21:22;;;;;;;;;;;;;;;;;;5070326;28;1918;-70
2023/10/20 10:24:07;;;;;;;;;;;;;;;;;;5071900;28;868;-69
2023/10/20 10:26:32;;;;;;;;;;;;;;;;;;5071522;28;868;-70
2023/10/20 10:28:58;;;;;;;;;;;;;;;;;;5070643;28;1206;-70
2023/10/20 10:31:32;;;;;;;;;;;;;;;;;;5068516;28;1188;-70
2023/10/20 10:34:01;;;;;;;;;;;;;;;;;;5060099;28;1164;-70
2023/10/20 10:36:26;;;;;;;;;;;;;;;;;;5051304;28;1235;-70
2023/10/20 10:38:52;;;;;;;;;;;;;;;;;;5067701;28;1169;-70
2023/10/20 10:41:23;;;;;;;;;;;;;;;;;;5056983;28;1973;-70
2023/10/20 10:43:52;;;;;;;;;;;;;;;;;;5053431;28;1310;-70
2023/10/20 10:46:17;;;;;;;;;;;;;;;;;;5070045;28;1199;-69
2023/10/20 10:48:45;;;;;;;;;;;;;;;;;;5071473;28;1226;-70
2023/10/20 10:51:10;;;;;;;;;;;;;;;;;;5070510;28;936;-69
2023/10/20 10:53:38;;;;;;;;;;;;;;;;;;5069741;28;1408;-70
2023/10/20 10:56:04;;;;;;;;;;;;;;;;;;5071062;28;912;-70
2023/10/20 10:58:30;;;;;;;;;;;;;;;;;;5071061;28;960;-69
2023/10/20 11:00:56;;;;;;;;;;;;;;;;;;5053616;28;1955;-69
2023/10/20 11:03:21;;;;;;;;;;;;;;;;;;5069613;28;1199;-69
2023/10/20 11:05:47;;;;;;;;;;;;;;;;;;5069574;28;1304;-69
2023/10/20 11:08:12;;;;;;;;;;;;;;;;;;5069338;28;1077;-69
2023/10/20 11:10:42;;;;;;;;;;;;;;;;;;5070323;28;872;-70
2023/10/20 11:13:08;;;;;;;;;;;;;;;;;;5069144;28;1534;-69
2023/10/20 11:15:35;;;;;;;;;;;;;;;;;;5069537;28;860;-69
2023/10/20 11:18:00;;;;;;;;;;;;;;;;;;5070871;28;833;-70
2023/10/20 11:20:26;;;;;;;;;;;;;;;;;;5070526;28;1902;-69
2023/10/20 11:22:55;;;;;;;;;;;;;;;;;;5069277;28;1197;-69
2023/10/20 11:25:21;;;;;;;;;;;;;;;;;;5069121;28;1564;-69
2023/10/20 11:27:54;;;;;;;;;;;;;;;;;;5069399;28;1175;-69
2023/10/20 11:30:45;;;;;;;;;;;;;;;;;;5070585;28;880;-69
2023/10/20 11:33:11;;;;;;;;;;;;;;;;;;5069313;28;935;-69
2023/10/20 11:35:36;;;;;;;;;;;;;;;;;;5068830;28;833;-69
2023/10/20 11:38:03;;;;;;;;;;;;;;;;;;5071007;28;841;-69
2023/10/20 11:40:28;;;;;;;;;;;;;;;;;;5070203;28;1960;-69
2023/10/20 11:42:54;;;;;;;;;;;;;;;;;;5070631;28;1407;-69
2023/10/20 11:45:22;;;;;;;;;;;;;;;;;;5074225;28;884;-69
2023/10/20 11:47:48;;;;;;;;;;;;;;;;;;5072796;28;1209;-70
2023/10/20 11:50:15;;;;;;;;;;;;;;;;;;5073329;28;856;-70
2023/10/20 11:52:41;;;;;;;;;;;;;;;;;;5074308;28;881;-70
2023/10/20 11:55:08;;;;;;;;;;;;;;;;;;5074104;28;967;-70
2023/10/20 11:57:34;;;;;;;;;;;;;;;;;;5072239;28;1519;-70
2023/10/20 12:00:01;;;;;;;;;;;;;;;;;;5072973;28;956;-69
2023/10/20 12:02:27;;;;;;;;;;;;;;;;;;5072796;28;1910;-70
2023/10/20 12:04:52;;;;;;;;;;;;;;;;;;5074831;28;1066;-69
2023/10/20 12:07:18;;;;;;;;;;;;;;;;;;5056821;28;1295;-70
2023/10/20 12:09:44;;;;;;;;;;;;;;;;;;5073075;28;1160;-69
2023/10/20 12:12:09;;;;;;;;;;;;;;;;;;5073142;28;1258;-70
2023/10/20 12:14:34;;;;;;;;;;;;;;;;;;5074979;28;844;-70
2023/10/20 12:17:00;;;;;;;;;;;;;;;;;;5073665;28;1258;-70
2023/10/20 12:19:25;;;;;;;;;;;;;;;;;;5073188;28;912;-70
2023/10/20 12:21:50;;;;;;;;;;;;;;;;;;5074350;28;1914;-70
2023/10/20 12:24:16;;;;;;;;;;;;;;;;;;5073022;28;1471;-69
2023/10/20 12:26:41;;;;;;;;;;;;;;;;;;5056415;28;1207;-70
2023/10/20 12:29:06;;;;;;;;;;;;;;;;;;5074141;28;961;-70
2023/10/20 12:31:32;;;;;;;;;;;;;;;;;;5073490;28;829;-70
2023/10/20 12:33:58;;;;;;;;;;;;;;;;;;5073879;28;817;-69
2023/10/20 12:36:24;;;;;;;;;;;;;;;;;;5056494;28;1210;-70
2023/10/20 12:38:49;;;;;;;;;;;;;;;;;;5073496;28;1432;-70
2023/10/20 12:41:15;;;;;;;;;;;;;;;;;;5073971;28;1906;-69
2023/10/20 12:43:41;;;;;;;;;;;;;;;;;;5074683;28;919;-70
2023/10/20 12:46:07;;;;;;;;;;;;;;;;;;5074475;28;935;-70
2023/10/20 12:48:33;;;;;;;;;;;;;;;;;;5072789;28;1267;-69
2023/10/20 12:50:58;;;;;;;;;;;;;;;;;;5071796;28;1325;-70
2023/10/20 12:53:24;;;;;;;;;;;;;;;;;;5072254;28;923;-69
2023/10/20 12:55:52;;;;;;;;;;;;;;;;;;5071568;28;896;-69
2023/10/20 12:58:18;;;;;;;;;;;;;;;;;;5072577;28;864;-69
2023/10/20 13:00:43;;;;;;;;;;;;;;;;;;5054449;28;1894;-70
2023/10/20 13:03:09;;;;;;;;;;;;;;;;;;5072721;28;1358;-70
2023/10/20 13:05:34;;;;;;;;;;;;;;;;;;5072688;28;892;-69
2023/10/20 13:08:00;;;;;;;;;;;;;;;;;;5071373;28;901;-69
2023/10/20 13:10:26;;;;;;;;;;;;;;;;;;5070752;28;1267;-70
2023/10/20 13:12:52;;;;;;;;;;;;;;;;;;5072789;28;864;-70
2023/10/20 13:15:19;;;;;;;;;;;;;;;;;;5071061;28;877;-69
2023/10/20 13:17:45;;;;;;;;;;;;;;;;;;5070628;28;1378;-70
2023/10/20 13:20:11;;;;;;;;;;;;;;;;;;5072298;28;845;-70
2023/10/20 13:22:37;;;;;;;;;;;;;;;;;;5070383;28;1913;-69
2023/10/20 13:25:03;;;;;;;;;;;;;;;;;;5070455;28;1351;-70
2023/10/20 13:27:29;;;;;;;;;;;;;;;;;;5071956;28;849;-69
2023/10/20 13:29:56;;;;;;;;;;;;;;;;;;5072120;28;825;-69
2023/10/20 13:32:21;;;;;;;;;;;;;;;;;;5070690;28;1318;-69
2023/10/20 13:34:49;;;;;;;;;;;;;;;;;;5071478;28;1314;-69
2023/10/20 13:37:14;;;;;;;;;;;;;;;;;;5055079;28;1187;-70
2023/10/20 13:39:40;;;;;;;;;;;;;;;;;;5050739;28;1334;-70
2023/10/20 13:42:06;;;;;;;;;;;;;;;;;;5050913;28;1906;-70
2023/10/20 13:44:32;;;;;;;;;;;;;;;;;;5052435;28;881;-70
2023/10/20 13:46:58;;;;;;;;;;;;;;;;;;5051732;28;913;-69
2023/10/20 13:49:23;;;;;;;;;;;;;;;;;;5051986;28;1194;-70
2023/10/20 13:51:49;;;;;;;;;;;;;;;;;;5058881;28;1160;-70
2023/10/20 13:54:15;;;;;;;;;;;;;;;;;;5053167;28;1329;-70
2023/10/20 13:56:40;;;;;;;;;;;;;;;;;;5070123;28;1247;-70
2023/10/20 13:59:06;;;;;;;;;;;;;;;;;;5070380;28;963;-70
2023/10/20 14:01:31;;;;;;;;;;;;;;;;;;5070490;28;1902;-69
2023/10/20 14:03:59;;;;;;;;;;;;;;;;;;5071428;28;1073;-69
2023/10/20 14:06:24;;;;;;;;;;;;;;;;;;5069220;28;1103;-69
2023/10/20 14:08:50;;;;;;;;;;;;;;;;;;5070172;28;829;-70
2023/10/20 14:11:16;;;;;;;;;;;;;;;;;;5071182;28;832;-70
2023/10/20 14:13:41;;;;;;;;;;;;;;;;;;5069285;28;884;-71
2023/10/20 14:16:06;;;;;;;;;;;;;;;;;;5070932;28;888;-70
2023/10/20 14:18:32;;;;;;;;;;;;;;;;;;5069107;28;1461;-70
2023/10/20 14:20:58;;;;;;;;;;;;;;;;;;5069989;28;1973;-70
2023/10/20 14:23:27;;;;;;;;;;;;;;;;;;5070238;28;1086;-70
2023/10/20 14:25:57;;;;;;;;;;;;;;;;;;5072446;28;923;-70
2023/10/20 14:28:23;;;;;;;;;;;;;;;;;;5068182;28;1222;-72
2023/10/20 14:30:54;;;;;;;;;;;;;;;;;;5035677;28;1366;-75
2023/10/20 14:33:20;;;;;;;;;;;;;;;;;;5035231;28;1152;-74
2023/10/20 14:35:45;;;;;;;;;;;;;;;;;;5036282;28;1458;-74
2023/10/20 14:38:10;;;;;;;;;;;;;;;;;;5042374;28;1441;-73
2023/10/20 14:40:35;;;;;;;;;;;;;;;;;;5053021;28;1969;-74
2023/10/20 14:43:01;;;;;;;;;;;;;;;;;;5072482;28;892;-74
2023/10/20 14:45:26;;;;;;;;;;;;;;;;;;5070494;28;1178;-73
2023/10/20 14:47:51;;;;;;;;;;;;;;;;;;5072665;28;924;-79
2023/10/20 14:50:17;;;;;;;;;;;;;;;;;;5053046;28;1393;-74
2023/10/20 14:52:42;;;;;;;;;;;;;;;;;;5070422;28;1805;-77
2023/10/20 14:55:09;;;;;;;;;;;;;;;;;;5072063;28;860;-76
2023/10/20 14:57:34;;;;;;;;;;;;;;;;;;5053842;28;1290;-73
2023/10/20 14:59:59;;;;;;;;;;;;;;;;;;5054650;28;1143;-73
2023/10/20 15:02:24;;;;;;;;;;;;;;;;;;5071257;28;1992;-73
2023/10/20 15:04:50;;;;;;;;;;;;;;;;;;5070113;28;1466;-73
2023/10/20 15:07:15;;;;;;;;;;;;;;;;;;5071837;28;943;-71
2023/10/20 15:09:40;;;;;;;;;;;;;;;;;;5070293;28;949;-71
2023/10/20 15:12:07;;;;;;;;;;;;;;;;;;5068921;28;1179;-72
2023/10/20 15:14:32;;;;;;;;;;;;;;;;;;5049087;28;1129;-72
2023/10/20 15:16:58;;;;;;;;;;;;;;;;;;5053691;28;1505;-72
2023/10/20 15:19:23;;;;;;;;;;;;;;;;;;5056503;28;1161;-69
2023/10/20 15:21:48;;;;;;;;;;;;;;;;;;5062347;28;1906;-70
2023/10/20 15:24:14;;;;;;;;;;;;;;;;;;5064694;28;1132;-69
2023/10/20 15:26:40;;;;;;;;;;;;;;;;;;5054809;28;1250;-69
2023/10/20 15:29:05;;;;;;;;;;;;;;;;;;5055582;28;1330;-70
2023/10/20 15:31:30;;;;;;;;;;;;;;;;;;5053511;28;845;-70
2023/10/20 15:33:56;;;;;;;;;;;;;;;;;;5055863;28;1054;-70
2023/10/20 15:36:21;;;;;;;;;;;;;;;;;;5055889;28;1204;-70
2023/10/20 15:38:46;;;;;;;;;;;;;;;;;;5055094;28;849;-70
2023/10/20 15:41:13;;;;;;;;;;;;;;;;;;5055020;28;1930;-71
2023/10/20 15:43:39;;;;;;;;;;;;;;;;;;5053410;28;1218;-71
2023/10/20 15:46:05;;;;;;;;;;;;;;;;;;5055211;28;943;-71
2023/10/20 15:48:30;;;;;;;;;;;;;;;;;;5054347;28;924;-70
2023/10/20 15:50:55;;;;;;;;;;;;;;;;;;5053795;28;1075;-71
2023/10/20 15:53:21;;;;;;;;;;;;;;;;;;5053120;28;888;-71
2023/10/20 15:55:46;;;;;;;;;;;;;;;;;;5053948;28;955;-71
2023/10/20 15:58:12;;;;;;;;;;;;;;;;;;5054431;28;876;-71
2023/10/20 16:00:38;;;;;;;;;;;;;;;;;;5052350;28;1977;-71
2023/10/20 16:03:05;;;;;;;;;;;;;;;;;;5054384;28;1050;-71
2023/10/20 16:05:30;;;;;;;;;;;;;;;;;;5052313;28;1433;-70
2023/10/20 16:07:56;;;;;;;;;;;;;;;;;;5054409;28;983;-70
2023/10/20 16:10:21;;;;;;;;;;;;;;;;;;5052322;28;1297;-70
2023/10/20 16:12:47;;;;;;;;;;;;;;;;;;5053650;28;832;-70
2023/10/20 16:15:12;;;;;;;;;;;;;;;;;;5054123;28;832;-71
2023/10/20 16:17:37;;;;;;;;;;;;;;;;;;5052594;28;1310;-70
2023/10/20 16:20:03;;;;;;;;;;;;;;;;;;5054775;28;951;-70
2023/10/20 16:22:28;;;;;;;;;;;;;;;;;;5053727;28;1918;-70
2023/10/20 16:24:53;;;;;;;;;;;;;;;;;;5036738;28;1183;-71
2023/10/20 16:27:19;;;;;;;;;;;;;;;;;;5052988;28;922;-71
2023/10/20 16:29:45;;;;;;;;;;;;;;;;;;5052279;28;1658;-71
2023/10/20 16:32:11;;;;;;;;;;;;;;;;;;5054862;28;900;-71
2023/10/20 16:34:36;;;;;;;;;;;;;;;;;;5053903;28;901;-71
2023/10/20 16:37:01;;;;;;;;;;;;;;;;;;5054481;28;908;-71
2023/10/20 16:39:26;;;;;;;;;;;;;;;;;;5052982;28;983;-70
2023/10/20 16:41:52;;;;;;;;;;;;;;;;;;5053836;28;1964;-71
2023/10/20 16:44:17;;;;;;;;;;;;;;;;;;5052537;28;1166;-70
2023/10/20 16:46:42;;;;;;;;;;;;;;;;;;5052313;28;1354;-70
2023/10/20 16:49:08;;;;;;;;;;;;;;;;;;5054681;28;979;-71
2023/10/20 16:51:33;;;;;;;;;;;;;;;;;;5052043;28;853;-71
2023/10/20 16:53:58;;;;;;;;;;;;;;;;;;5053954;28;841;-71
2023/10/20 16:56:24;;;;;;;;;;;;;;;;;;5053198;28;920;-71
2023/10/20 16:58:49;;;;;;;;;;;;;;;;;;5053211;28;956;-71
2023/10/20 17:01:16;;;;;;;;;;;;;;;;;;5053389;28;1914;-71
2023/10/20 17:03:41;;;;;;;;;;;;;;;;;;5051861;28;1674;-71
2023/10/20 17:06:06;;;;;;;;;;;;;;;;;;5053911;28;926;-71
2023/10/20 17:08:32;;;;;;;;;;;;;;;;;;5053305;28;1144;-71
2023/10/20 17:11:01;;;;;;;;;;;;;;;;;;5052602;28;852;-71
2023/10/20 17:13:26;;;;;;;;;;;;;;;;;;5054916;28;1860;-71
2023/10/20 17:15:51;;;;;;;;;;;;;;;;;;5064627;28;1105;-71
2023/10/20 17:18:16;;;;;;;;;;;;;;;;;;5054171;28;1231;-71
2023/10/20 17:20:42;;;;;;;;;;;;;;;;;;5052563;28;1975;-70
2023/10/20 17:23:08;;;;;;;;;;;;;;;;;;5051455;28;1298;-70
2023/10/20 17:25:34;;;;;;;;;;;;;;;;;;5050702;28;1328;-71
2023/10/20 17:27:59;;;;;;;;;;;;;;;;;;5035345;28;1342;-71
2023/10/20 17:30:24;;;;;;;;;;;;;;;;;;5051385;28;963;-70
2023/10/20 17:32:51;;;;;;;;;;;;;;;;;;5050676;28;1183;-70
2023/10/20 17:35:18;;;;;;;;;;;;;;;;;;5051852;28;920;-70
2023/10/20 17:37:43;;;;;;;;;;;;;;;;;;5051919;28;878;-71
2023/10/20 17:40:11;;;;;;;;;;;;;;;;;;5050058;28;940;-71